Terminal Aerodrome Forecast
Issued by NWS

Home | Current Version | Previous Version | Text Only | Print | Product List | Glossary On
Versions: 1 2 3 4 5 6 7 8 9 10 11 12 13 14 15 16 17 18 19 20 21 22 23 24 25
000
FTUS41 KBOX 131734
TAFBAF
TAF
KBAF 131734Z 1318/1418 21013G24KT P6SM BKN060
     FM140200 20011G18KT P6SM -SHRA OVC070
     FM140400 19006KT P6SM -SHRA OVC050
     FM140500 18005KT P6SM OVC050
     FM140600 18005KT P6SM OVC030
     FM141300 VRB03KT P6SM BKN030
     FM141500 22004KT P6SM BKN060
      AMD NOT SKED=

USA.gov is the U.S. government's official web portal to all federal, state and local government web resources and services.